Time;durP1;ratioP1;P1;durP2;ratioP2;P2;SDS_P1;SDS_P2;PMS_P1;PMS_P2;Temp;Humidity;BMP_temperature;BMP_pressure;BME280_temperature;BME280_humidity;BME280_pressure;Samples;Min_cycle;Max_cycle;Signal;HPM_P1;HPM_P2
2023/01/31 00:04:48;;;;;;;14.40;5.87;;;;;3.20;102041.00;;;;10072674;29;20773;-81
2023/01/31 00:09:50;;;;;;;21.60;5.67;;;;;3.20;102045.00;;;;10075576;29;20318;-80
2023/01/31 00:14:51;;;;;;;20.57;5.50;;;;;3.10;102045.00;;;;10064430;29;20214;-80
2023/01/31 00:19:54;;;;;;;15.97;6.37;;;;;3.00;102055.00;;;;10087858;29;20203;-81
2023/01/31 00:24:56;;;;;;;12.10;5.03;;;;;3.00;102046.00;;;;10096313;29;20688;-81
2023/01/31 00:29:58;;;;;;;15.33;6.10;;;;;2.90;102053.00;;;;10078280;29;20291;-81
2023/01/31 00:35:00;;;;;;;15.97;5.77;;;;;2.90;102042.00;;;;10088631;29;20208;-80
2023/01/31 00:40:03;;;;;;;17.73;6.17;;;;;2.80;102036.00;;;;10087983;29;20638;-80
2023/01/31 00:45:06;;;;;;;14.43;5.90;;;;;2.80;102051.00;;;;10081568;29;20279;-80
2023/01/31 00:50:12;;;;;;;22.63;7.10;;;;;2.80;102046.00;;;;10110669;29;20219;-80
2023/01/31 00:55:14;;;;;;;18.40;5.70;;;;;2.80;102039.00;;;;10086603;29;20207;-80
2023/01/31 01:00:17;;;;;;;16.37;6.47;;;;;2.80;102045.00;;;;10079436;29;20203;-80
2023/01/31 01:05:19;;;;;;;17.27;5.77;;;;;2.80;102049.00;;;;10087185;29;20232;-80
2023/01/31 01:10:22;;;;;;;21.97;5.57;;;;;2.80;102031.00;;;;10085913;29;20694;-80
2023/01/31 01:15:24;;;;;;;18.33;6.13;;;;;2.80;102023.00;;;;10104617;29;20207;-80
2023/01/31 01:20:26;;;;;;;14.10;5.70;;;;;2.70;102023.00;;;;10076473;29;20232;-81
2023/01/31 01:25:28;;;;;;;16.10;5.60;;;;;2.60;102023.00;;;;10069724;29;20224;-80
2023/01/31 01:30:33;;;;;;;20.07;6.77;;;;;2.50;102014.00;;;;10085938;29;20191;-81
2023/01/31 01:35:35;;;;;;;19.03;5.93;;;;;2.50;102012.00;;;;10099268;29;20907;-79
2023/01/31 01:40:37;;;;;;;15.60;5.97;;;;;2.40;102015.00;;;;10100490;29;20631;-79
2023/01/31 01:45:40;;;;;;;24.23;5.87;;;;;2.40;102018.00;;;;10083028;29;20963;-80
2023/01/31 01:50:48;;;;;;;19.73;6.63;;;;;2.30;102031.00;;;;10117780;29;20207;-79
2023/01/31 01:55:56;;;;;;;14.37;6.10;;;;;2.30;102040.00;;;;10078692;29;20199;-80
2023/01/31 02:01:05;;;;;;;21.07;7.17;;;;;2.30;102023.00;;;;10097668;29;20291;-78
2023/01/31 02:06:07;;;;;;;16.97;6.83;;;;;2.20;102004.00;;;;10076588;29;20233;-78
2023/01/31 02:11:23;;;;;;;18.83;6.47;;;;;2.20;101997.00;;;;10098628;29;20674;-78
2023/01/31 02:16:25;;;;;;;17.07;5.83;;;;;2.10;102009.00;;;;10121890;29;20730;-79
2023/01/31 02:21:58;;;;;;;21.30;7.00;;;;;2.00;102012.00;;;;10106338;29;20203;-78
2023/01/31 02:27:12;;;;;;;26.10;7.00;;;;;2.00;102008.00;;;;10082935;29;20211;-78
2023/01/31 02:32:16;;;;;;;20.73;7.03;;;;;2.00;102011.00;;;;10095644;29;20305;-78
2023/01/31 02:37:48;;;;;;;22.50;7.47;;;;;2.10;102004.00;;;;10103953;29;20221;-78
2023/01/31 02:43:06;;;;;;;17.97;6.80;;;;;2.10;102008.00;;;;10052254;29;20204;-78
2023/01/31 02:48:50;;;;;;;14.87;6.87;;;;;2.10;102004.00;;;;10095075;29;20241;-78
2023/01/31 02:54:06;;;;;;;15.73;7.63;;;;;2.10;102008.00;;;;10074488;29;20218;-78
2023/01/31 02:59:21;;;;;;;16.57;6.90;;;;;2.10;102011.00;;;;10118005;29;20213;-78
2023/01/31 03:04:30;;;;;;;17.27;6.83;;;;;2.00;101994.00;;;;10101964;29;20227;-78
2023/01/31 03:09:38;;;;;;;11.67;6.57;;;;;2.00;101996.00;;;;10085280;29;20228;-78
2023/01/31 03:15:00;;;;;;;11.97;7.07;;;;;2.00;101986.00;;;;10100634;29;20204;-78
2023/01/31 03:20:11;;;;;;;18.10;7.30;;;;;2.00;101998.00;;;;10128151;29;20754;-78
2023/01/31 03:25:17;;;;;;;21.67;7.33;;;;;2.00;101989.00;;;;10068254;29;20219;-78
2023/01/31 03:30:33;;;;;;;20.23;6.90;;;;;2.00;101995.00;;;;10070242;29;20215;-78
2023/01/31 03:35:39;;;;;;;15.37;6.77;;;;;2.00;101977.00;;;;10071814;29;20231;-78
2023/01/31 03:40:52;;;;;;;13.30;6.23;;;;;1.90;101974.00;;;;10117341;29;20889;-78
2023/01/31 03:46:05;;;;;;;21.13;6.33;;;;;1.80;101966.00;;;;10101248;29;20227;-78
2023/01/31 03:51:13;;;;;;;14.13;6.83;;;;;1.80;101968.00;;;;10070123;29;20267;-78
2023/01/31 03:56:30;;;;;;;16.60;6.43;;;;;1.90;101970.00;;;;10099829;29;20278;-78
2023/01/31 04:01:34;;;;;;;19.17;6.87;;;;;1.90;101975.00;;;;10115198;29;20202;-78
2023/01/31 04:06:38;;;;;;;19.03;7.07;;;;;1.90;101958.00;;;;10084723;29;20266;-78
2023/01/31 04:11:47;;;;;;;14.37;6.27;;;;;1.90;101963.00;;;;10068840;29;20199;-78
2023/01/31 04:16:49;;;;;;;17.03;6.30;;;;;1.90;101971.00;;;;10080086;29;20211;-78
2023/01/31 04:21:51;;;;;;;14.40;6.40;;;;;1.80;101980.00;;;;10098962;29;20595;-78
2023/01/31 04:26:53;;;;;;;17.47;6.67;;;;;1.70;101988.00;;;;10075219;29;20223;-78
2023/01/31 04:31:55;;;;;;;17.43;6.83;;;;;1.80;101977.00;;;;10097691;29;20214;-78
2023/01/31 04:36:57;;;;;;;18.07;6.40;;;;;1.80;101989.00;;;;10071397;29;20211;-78
2023/01/31 04:41:59;;;;;;;13.73;5.50;;;;;1.80;101976.00;;;;10082762;29;20611;-78
2023/01/31 04:47:01;;;;;;;13.93;6.37;;;;;1.80;101981.00;;;;10081832;29;20223;-78
2023/01/31 04:52:03;;;;;;;18.73;5.43;;;;;1.90;101981.00;;;;10069059;29;20741;-78
2023/01/31 04:57:05;;;;;;;19.53;5.53;;;;;1.90;101970.00;;;;10117876;29;20207;-78
2023/01/31 05:02:07;;;;;;;14.57;5.23;;;;;2.00;101968.00;;;;10106807;29;20267;-78
2023/01/31 05:07:09;;;;;;;10.37;5.30;;;;;2.20;101937.00;;;;10095035;29;20227;-78
2023/01/31 05:12:11;;;;;;;13.30;5.37;;;;;2.40;101932.00;;;;10090587;29;20204;-78
2023/01/31 05:17:13;;;;;;;15.33;5.07;;;;;2.50;101927.00;;;;10059255;29;20710;-79
2023/01/31 05:22:15;;;;;;;11.97;4.53;;;;;2.50;101931.00;;;;10083969;29;20742;-78
2023/01/31 05:27:18;;;;;;;15.97;5.30;;;;;2.50;101921.00;;;;10097679;29;20232;-78
2023/01/31 05:32:20;;;;;;;12.30;4.67;;;;;2.60;101928.00;;;;10101314;29;20199;-79
2023/01/31 05:37:22;;;;;;;11.87;4.17;;;;;2.60;101921.00;;;;10119645;29;20213;-78
2023/01/31 05:42:24;;;;;;;19.77;5.43;;;;;2.70;101912.00;;;;10073187;29;20207;-78
2023/01/31 05:47:26;;;;;;;14.07;4.80;;;;;2.80;101904.00;;;;10072365;29;20233;-78
2023/01/31 05:52:28;;;;;;;15.87;4.50;;;;;2.80;101897.00;;;;10089224;29;20667;-78
2023/01/31 05:57:30;;;;;;;17.33;5.07;;;;;2.80;101892.00;;;;10118047;29;20294;-79
2023/01/31 06:02:32;;;;;;;12.80;4.77;;;;;2.90;101893.00;;;;10097407;29;20204;-78
2023/01/31 06:07:34;;;;;;;14.37;5.03;;;;;2.90;101907.00;;;;10104393;29;20263;-78
2023/01/31 06:12:36;;;;;;;14.77;4.80;;;;;3.00;101893.00;;;;10090072;29;20298;-78
2023/01/31 06:17:38;;;;;;;8.90;4.13;;;;;3.00;101909.00;;;;10096782;29;20211;-78
2023/01/31 06:22:40;;;;;;;10.40;4.27;;;;;3.10;101897.00;;;;10104367;29;20671;-78
2023/01/31 06:27:42;;;;;;;10.50;4.87;;;;;3.20;101892.00;;;;10089917;29;20223;-78
2023/01/31 06:32:44;;;;;;;12.23;4.83;;;;;3.30;101893.00;;;;10083325;29;20211;-78
2023/01/31 06:37:46;;;;;;;16.33;5.33;;;;;3.40;101892.00;;;;10092300;29;20212;-78
2023/01/31 06:42:48;;;;;;;15.23;4.97;;;;;3.40;101895.00;;;;10119413;29;20294;-78
2023/01/31 06:47:50;;;;;;;18.93;5.13;;;;;3.50;101890.00;;;;10096785;29;20287;-78
2023/01/31 06:52:53;;;;;;;17.33;4.33;;;;;3.50;101885.00;;;;10102475;29;20259;-78
2023/01/31 06:57:55;;;;;;;13.53;4.30;;;;;3.60;101887.00;;;;10104443;29;20234;-78
2023/01/31 07:02:57;;;;;;;11.50;4.57;;;;;3.60;101893.00;;;;10088245;29;20660;-78
2023/01/31 07:07:59;;;;;;;12.07;4.93;;;;;3.60;101892.00;;;;10103153;29;20263;-78
2023/01/31 07:13:01;;;;;;;14.03;4.87;;;;;3.70;101902.00;;;;10103093;29;20655;-78
2023/01/31 07:18:05;;;;;;;13.57;4.77;;;;;3.80;101904.00;;;;10103859;29;20560;-78
2023/01/31 07:23:07;;;;;;;10.57;4.63;;;;;3.80;101902.00;;;;10066079;29;20267;-78
2023/01/31 07:28:10;;;;;;;11.20;3.93;;;;;3.90;101906.00;;;;10073678;29;20240;-78
2023/01/31 07:33:12;;;;;;;14.97;4.37;;;;;4.00;101909.00;;;;10074503;29;20263;-78
2023/01/31 07:38:14;;;;;;;15.43;4.43;;;;;4.10;101916.00;;;;10096812;29;20280;-78
2023/01/31 07:43:16;;;;;;;11.53;4.60;;;;;4.10;101917.00;;;;10095876;29;20200;-78
2023/01/31 07:48:22;;;;;;;13.70;4.13;;;;;4.10;101910.00;;;;10087249;29;20223;-78
2023/01/31 07:53:27;;;;;;;19.37;5.07;;;;;4.20;101905.00;;;;10086647;29;20219;-78
2023/01/31 07:58:29;;;;;;;17.47;5.63;;;;;4.30;101900.00;;;;10117340;29;20251;-78
2023/01/31 08:03:31;;;;;;;16.27;5.33;;;;;4.30;101892.00;;;;10079546;29;20203;-78
2023/01/31 08:08:38;;;;;;;13.60;4.97;;;;;4.40;101892.00;;;;10081363;29;20227;-79
2023/01/31 08:13:40;;;;;;;14.30;4.73;;;;;4.50;101901.00;;;;10083677;29;20287;-78
2023/01/31 08:18:42;;;;;;;15.03;4.93;;;;;4.70;101899.00;;;;10117173;29;20199;-78
2023/01/31 08:23:44;;;;;;;11.37;5.33;;;;;4.80;101882.00;;;;10094796;29;20230;-79
2023/01/31 08:28:49;;;;;;;14.43;5.60;;;;;5.10;101870.00;;;;10102116;29;20290;-78
2023/01/31 08:33:52;;;;;;;19.73;5.33;;;;;5.40;101869.00;;;;10101819;29;20232;-78
2023/01/31 08:38:54;;;;;;;14.17;5.90;;;;;5.70;101861.00;;;;10079898;29;20214;-78
2023/01/31 08:43:58;;;;;;;15.47;5.13;;;;;6.00;101849.00;;;;10100809;29;20302;-78
2023/01/31 08:49:02;;;;;;;12.67;4.00;;;;;6.00;101849.00;;;;10094837;29;20210;-78
2023/01/31 08:54:04;;;;;;;15.60;4.57;;;;;6.00;101860.00;;;;10068530;29;20212;-78
2023/01/31 08:59:06;;;;;;;14.87;4.17;;;;;6.00;101870.00;;;;10109652;29;20211;-78
2023/01/31 09:04:08;;;;;;;10.87;4.00;;;;;6.00;101848.00;;;;10094106;29;20309;-78
2023/01/31 09:09:10;;;;;;;14.33;3.77;;;;;6.20;101826.00;;;;10099253;29;20230;-78
2023/01/31 09:14:12;;;;;;;16.37;3.97;;;;;6.60;101807.00;;;;10103434;29;20237;-78
2023/01/31 09:19:14;;;;;;;12.03;4.20;;;;;7.00;101829.00;;;;10090813;29;20295;-78
2023/01/31 09:24:16;;;;;;;15.60;4.90;;;;;7.20;101827.00;;;;10074444;29;20228;-78
2023/01/31 09:29:18;;;;;;;14.93;4.07;;;;;7.30;101824.00;;;;10104996;29;20706;-78
2023/01/31 09:34:21;;;;;;;15.40;3.90;;;;;7.40;101828.00;;;;10112660;29;20247;-78
2023/01/31 09:39:24;;;;;;;22.87;4.50;;;;;7.50;101828.00;;;;10119421;29;20212;-78
2023/01/31 09:44:40;;;;;;;18.10;4.07;;;;;7.30;101842.00;;;;10112649;29;20230;-79
2023/01/31 09:49:50;;;;;;;11.27;4.50;;;;;7.30;101843.00;;;;10113780;29;20206;-79
2023/01/31 09:54:52;;;;;;;15.73;4.07;;;;;7.20;101847.00;;;;10119734;29;20212;-78
2023/01/31 10:00:15;;;;;;;20.07;4.00;;;;;7.20;101838.00;;;;10111325;29;20220;-78
2023/01/31 10:05:29;;;;;;;16.73;4.30;;;;;7.40;101823.00;;;;10103106;29;20710;-78
2023/01/31 10:10:31;;;;;;;15.03;4.70;;;;;7.50;101814.00;;;;10118223;29;20223;-78
2023/01/31 10:15:58;;;;;;;17.50;4.73;;;;;7.90;101820.00;;;;10102923;29;20485;-78
2023/01/31 10:21:05;;;;;;;13.47;3.87;;;;;8.40;101796.00;;;;10101643;29;20219;-78
2023/01/31 10:26:29;;;;;;;14.80;4.37;;;;;8.90;101781.00;;;;10086357;29;20227;-78
2023/01/31 10:31:43;;;;;;;13.00;4.50;;;;;9.00;101776.00;;;;10117022;29;20229;-78
2023/01/31 10:36:54;;;;;;;13.03;4.23;;;;;9.90;101787.00;;;;10117070;29;20212;-79
2023/01/31 10:42:14;;;;;;;13.63;4.97;;;;;10.80;101801.00;;;;10097988;29;20214;-79
2023/01/31 10:47:18;;;;;;;14.37;4.37;;;;;10.80;101790.00;;;;10128128;29;20291;-77
2023/01/31 10:52:42;;;;;;;11.63;4.30;;;;;10.20;101785.00;;;;10100516;29;20199;-78
2023/01/31 10:57:44;;;;;;;13.83;4.43;;;;;10.10;101760.00;;;;10116206;29;20282;-78
2023/01/31 11:02:46;;;;;;;13.43;4.17;;;;;10.60;101768.00;;;;10085108;29;20290;-79
2023/01/31 11:07:49;;;;;;;7.57;4.23;;;;;10.40;101775.00;;;;10105275;29;20317;-78
2023/01/31 11:12:56;;;;;;;15.53;4.10;;;;;10.10;101774.00;;;;10100860;29;20242;-78
2023/01/31 11:17:59;;;;;;;13.77;4.53;;;;;9.90;101761.00;;;;10081902;29;20204;-78
2023/01/31 11:23:05;;;;;;;16.90;4.07;;;;;9.90;101750.00;;;;10114312;29;20196;-79
2023/01/31 11:28:22;;;;;;;16.63;4.53;;;;;10.50;101745.00;;;;10107366;29;20287;-78
2023/01/31 11:34:00;;;;;;;9.37;3.77;;;;;10.80;101750.00;;;;10069091;29;20211;-78
2023/01/31 11:39:30;;;;;;;11.33;4.00;;;;;10.30;101737.00;;;;10097903;29;20208;-78
2023/01/31 11:44:32;;;;;;;11.40;4.17;;;;;10.00;101762.00;;;;10068891;29;20223;-79
2023/01/31 11:49:40;;;;;;;15.63;4.43;;;;;9.80;101769.00;;;;10091555;29;20207;-79
2023/01/31 11:54:53;;;;;;;19.33;4.30;;;;;10.10;101751.00;;;;10100118;29;20226;-78
2023/01/31 11:59:57;;;;;;;11.77;3.97;;;;;10.50;101733.00;;;;10114400;29;20242;-78
2023/01/31 12:05:01;;;;;;;10.97;4.20;;;;;10.60;101726.00;;;;10084311;29;20219;-79
2023/01/31 12:10:25;;;;;;;11.83;4.07;;;;;10.40;101728.00;;;;10115398;29;20223;-79
2023/01/31 12:15:28;;;;;;;14.03;4.17;;;;;9.90;101734.00;;;;10134861;29;20238;-79
2023/01/31 12:20:33;;;;;;;10.97;4.37;;;;;9.30;101726.00;;;;10121328;29;20675;-78
2023/01/31 12:25:41;;;;;;;12.37;3.90;;;;;9.00;101727.00;;;;10113382;29;20253;-78
2023/01/31 12:31:08;;;;;;;7.20;3.70;;;;;9.10;101727.00;;;;10115111;29;20258;-79
2023/01/31 12:36:16;;;;;;;9.30;4.47;;;;;9.00;101733.00;;;;10054833;29;20715;-80
2023/01/31 12:41:31;;;;;;;15.47;4.13;;;;;8.80;101723.00;;;;10086168;29;20203;-79
2023/01/31 12:46:48;;;;;;;11.23;3.63;;;;;8.70;101720.00;;;;10110610;29;20239;-79
2023/01/31 12:52:14;;;;;;;8.77;4.17;;;;;8.80;101711.00;;;;10108537;29;20242;-78
2023/01/31 12:57:39;;;;;;;12.47;5.47;;;;;9.00;101711.00;;;;10089215;29;20238;-78
2023/01/31 13:03:00;;;;;;;12.80;5.90;;;;;9.10;101712.00;;;;10104045;29;20301;-79
2023/01/31 13:08:16;;;;;;;12.67;4.67;;;;;9.00;101717.00;;;;10098913;29;20223;-78
2023/01/31 13:13:27;;;;;;;19.00;5.67;;;;;8.70;101719.00;;;;10095708;29;20210;-78
2023/01/31 13:18:33;;;;;;;16.20;5.00;;;;;8.40;101723.00;;;;10102765;29;20615;-78
2023/01/31 13:23:47;;;;;;;18.87;5.97;;;;;8.10;101721.00;;;;10102435;29;20567;-78
2023/01/31 13:29:04;;;;;;;14.53;6.43;;;;;7.90;101722.00;;;;10103501;29;20222;-78
2023/01/31 13:34:17;;;;;;;13.33;5.70;;;;;7.70;101707.00;;;;10079951;29;20574;-78
2023/01/31 13:39:23;;;;;;;17.80;6.17;;;;;7.80;101718.00;;;;10104455;29;20734;-77
2023/01/31 13:44:25;;;;;;;14.73;5.63;;;;;7.80;101717.00;;;;10093308;29;20242;-78
2023/01/31 13:49:35;;;;;;;12.00;5.93;;;;;7.80;101704.00;;;;10098377;29;20204;-78
2023/01/31 13:54:40;;;;;;;12.03;4.80;;;;;7.70;101706.00;;;;10075237;29;20680;-78
2023/01/31 13:59:55;;;;;;;15.07;5.63;;;;;7.80;101697.00;;;;10061780;29;20208;-78
2023/01/31 14:05:41;;;;;;;8.60;5.03;;;;;8.00;101690.00;;;;10115864;29;20212;-78
2023/01/31 14:10:43;;;;;;;11.97;5.43;;;;;7.80;101693.00;;;;10072719;29;20267;-77
2023/01/31 14:15:48;;;;;;;13.70;5.07;;;;;7.90;101685.00;;;;10127152;29;20208;-77
2023/01/31 14:20:50;;;;;;;7.47;4.43;;;;;8.00;101676.00;;;;10096133;29;20294;-77
2023/01/31 14:25:52;;;;;;;6.40;4.10;;;;;8.20;101668.00;;;;10111319;29;20231;-77
2023/01/31 14:30:54;;;;;;;9.67;4.10;;;;;8.40;101665.00;;;;10081079;29;20212;-77
2023/01/31 14:36:12;;;;;;;12.33;5.30;;;;;8.60;101671.00;;;;10088484;29;20283;-77
2023/01/31 14:41:50;;;;;;;8.47;4.33;;;;;8.60;101687.00;;;;10079989;29;20311;-78
2023/01/31 14:47:06;;;;;;;8.80;3.90;;;;;8.60;101690.00;;;;10093174;29;20274;-78
2023/01/31 14:52:35;;;;;;;9.10;4.07;;;;;8.50;101700.00;;;;10104501;29;20234;-78
2023/01/31 14:57:42;;;;;;;7.73;3.73;;;;;8.40;101718.00;;;;10112543;29;20211;-78
2023/01/31 15:03:19;;;;;;;10.50;4.43;;;;;8.20;101732.00;;;;10087712;29;20224;-77
2023/01/31 15:08:20;;;;;;;8.30;4.37;;;;;8.10;101737.00;;;;10064263;29;20302;-78
2023/01/31 15:13:44;;;;;;;8.53;3.43;;;;;8.10;101738.00;;;;10066201;29;20547;-78
2023/01/31 15:19:08;;;;;;;7.23;3.27;;;;;8.20;101743.00;;;;10109355;29;20204;-78
2023/01/31 15:24:34;;;;;;;12.13;3.93;;;;;8.30;101735.00;;;;10065084;29;20208;-78
2023/01/31 15:30:05;;;;;;;6.07;2.60;;;;;8.40;101737.00;;;;10096320;29;20674;-78
2023/01/31 15:35:23;;;;;;;7.70;3.03;;;;;8.40;101731.00;;;;10082519;29;20212;-78
2023/01/31 15:40:27;;;;;;;8.63;3.33;;;;;8.40;101739.00;;;;10117552;29;20586;-78
2023/01/31 15:45:29;;;;;;;6.73;3.23;;;;;8.30;101735.00;;;;10097527;29;20219;-78
2023/01/31 15:50:32;;;;;;;11.00;3.40;;;;;8.30;101733.00;;;;10066713;29;20204;-78
2023/01/31 15:55:35;;;;;;;3.97;2.57;;;;;8.30;101732.00;;;;10092738;29;20212;-78
2023/01/31 16:00:38;;;;;;;9.73;2.70;;;;;8.10;101740.00;;;;10073473;29;20210;-77
2023/01/31 16:05:40;;;;;;;7.10;3.93;;;;;8.00;101742.00;;;;10073404;29;20239;-78
2023/01/31 16:10:44;;;;;;;9.07;3.77;;;;;7.90;101759.00;;;;10078144;29;20251;-78
2023/01/31 16:15:47;;;;;;;5.93;3.27;;;;;7.90;101756.00;;;;10060725;29;20208;-78
2023/01/31 16:20:51;;;;;;;9.47;3.43;;;;;7.80;101750.00;;;;10105855;29;20203;-78
2023/01/31 16:26:14;;;;;;;6.37;3.40;;;;;7.80;101747.00;;;;10079725;29;20855;-78
2023/01/31 16:31:20;;;;;;;7.43;3.43;;;;;7.70;101755.00;;;;10104976;29;20270;-78
2023/01/31 16:36:26;;;;;;;7.27;2.83;;;;;7.70;101769.00;;;;10108396;29;20220;-78
2023/01/31 16:41:57;;;;;;;8.90;4.10;;;;;7.70;101774.00;;;;10085750;29;20275;-77
2023/01/31 16:46:59;;;;;;;8.63;3.77;;;;;7.60;101765.00;;;;10075266;29;20249;-78
2023/01/31 16:52:22;;;;;;;5.40;3.53;;;;;7.60;101776.00;;;;10110369;29;20210;-77
2023/01/31 16:57:32;;;;;;;6.90;3.03;;;;;7.50;101769.00;;;;10079233;29;20282;-78
2023/01/31 17:02:40;;;;;;;10.90;3.57;;;;;7.50;101763.00;;;;10111117;29;20207;-78
2023/01/31 17:07:43;;;;;;;10.57;3.30;;;;;7.50;101776.00;;;;10076747;29;20231;-77
2023/01/31 17:12:45;;;;;;;4.90;3.33;;;;;7.60;101780.00;;;;10080491;29;20255;-78
2023/01/31 17:17:47;;;;;;;9.17;3.03;;;;;7.70;101772.00;;;;10096280;29;20207;-77
2023/01/31 17:22:50;;;;;;;9.17;3.17;;;;;7.70;101761.00;;;;10065385;29;20211;-78
2023/01/31 17:28:04;;;;;;;8.87;4.13;;;;;7.70;101773.00;;;;10085490;29;20374;-77
2023/01/31 17:33:11;;;;;;;5.17;2.97;;;;;7.70;101765.00;;;;10102911;29;20304;-78
2023/01/31 17:38:12;;;;;;;7.13;3.23;;;;;7.80;101767.00;;;;10057174;29;20758;-78
2023/01/31 17:43:20;;;;;;;5.83;3.40;;;;;7.80;101758.00;;;;10125282;29;20203;-78
2023/01/31 17:48:21;;;;;;;8.07;3.70;;;;;7.80;101764.00;;;;10110083;29;20225;-78
2023/01/31 17:53:27;;;;;;;10.50;3.97;;;;;7.70;101756.00;;;;10117178;29;20203;-77
2023/01/31 17:58:38;;;;;;;4.10;3.13;;;;;7.60;101763.00;;;;10064911;29;20207;-78
2023/01/31 18:03:41;;;;;;;6.07;3.40;;;;;7.50;101772.00;;;;10071598;29;20199;-78
2023/01/31 18:08:47;;;;;;;7.77;3.57;;;;;7.50;101767.00;;;;10101118;29;20752;-77
2023/01/31 18:13:51;;;;;;;6.43;3.30;;;;;7.60;101759.00;;;;10101917;29;20211;-78
2023/01/31 18:18:54;;;;;;;9.67;3.87;;;;;7.60;101760.00;;;;10085999;29;20222;-77
2023/01/31 18:23:57;;;;;;;9.50;3.97;;;;;7.60;101761.00;;;;10098783;29;20224;-78
2023/01/31 18:28:59;;;;;;;8.80;4.40;;;;;7.60;101754.00;;;;10116460;29;20216;-78
2023/01/31 18:34:01;;;;;;;8.97;4.27;;;;;7.60;101756.00;;;;10091803;29;20299;-78
2023/01/31 18:39:03;;;;;;;8.03;3.97;;;;;7.60;101749.00;;;;10092001;29;20255;-79
2023/01/31 18:44:05;;;;;;;8.63;4.40;;;;;7.50;101754.00;;;;10093528;29;20204;-78
2023/01/31 18:49:07;;;;;;;7.57;4.30;;;;;7.30;101756.00;;;;10122259;29;20224;-79
2023/01/31 18:54:09;;;;;;;12.37;5.57;;;;;7.10;101745.00;;;;10086814;29;20216;-77
2023/01/31 18:59:11;;;;;;;10.50;5.30;;;;;6.90;101757.00;;;;10097793;29;20290;-78
2023/01/31 19:04:13;;;;;;;12.50;5.53;;;;;6.90;101762.00;;;;10098060;29;20214;-78
2023/01/31 19:09:16;;;;;;;10.40;5.40;;;;;7.00;101771.00;;;;10099496;29;20215;-78
2023/01/31 19:14:18;;;;;;;9.47;5.07;;;;;7.00;101759.00;;;;10113050;29;20865;-78
2023/01/31 19:19:20;;;;;;;11.57;5.30;;;;;7.10;101769.00;;;;10096663;29;20235;-77
2023/01/31 19:24:22;;;;;;;10.67;4.20;;;;;7.20;101777.00;;;;10113731;29;20682;-78
2023/01/31 19:29:26;;;;;;;12.57;5.23;;;;;7.10;101780.00;;;;10098805;29;20226;-78
2023/01/31 19:34:28;;;;;;;12.07;5.37;;;;;7.00;101782.00;;;;10078784;29;20202;-77
2023/01/31 19:39:30;;;;;;;15.40;5.23;;;;;6.90;101798.00;;;;10111787;29;20203;-78
2023/01/31 19:44:34;;;;;;;9.57;5.33;;;;;6.90;101787.00;;;;10092501;29;20218;-79
2023/01/31 19:49:36;;;;;;;10.00;5.40;;;;;7.00;101793.00;;;;10154282;29;20218;-77
2023/01/31 19:54:40;;;;;;;16.00;5.70;;;;;7.10;101794.00;;;;10070003;29;20199;-77
2023/01/31 19:59:43;;;;;;;13.67;5.80;;;;;7.10;101789.00;;;;10065728;29;20207;-78
2023/01/31 20:04:44;;;;;;;17.00;6.47;;;;;7.00;101792.00;;;;10096773;29;20214;-78
2023/01/31 20:09:46;;;;;;;13.60;5.80;;;;;7.10;101809.00;;;;10085016;29;20227;-78
2023/01/31 20:14:48;;;;;;;12.90;6.17;;;;;7.10;101804.00;;;;10105275;29;20202;-78
2023/01/31 20:19:50;;;;;;;17.63;6.73;;;;;7.10;101796.00;;;;10132026;29;20252;-77
2023/01/31 20:24:53;;;;;;;13.40;5.77;;;;;7.10;101791.00;;;;10081571;29;20747;-78
2023/01/31 20:29:55;;;;;;;12.70;7.47;;;;;7.10;101784.00;;;;10096340;29;20227;-78
2023/01/31 20:34:59;;;;;;;12.63;6.83;;;;;7.00;101793.00;;;;10111693;29;20291;-78
2023/01/31 20:40:03;;;;;;;16.83;6.77;;;;;6.80;101792.00;;;;10090357;29;20326;-78
2023/01/31 20:45:05;;;;;;;15.07;6.40;;;;;6.70;101785.00;;;;10101936;29;20204;-78
2023/01/31 20:50:08;;;;;;;11.03;7.60;;;;;6.50;101795.00;;;;10111526;29;20278;-78
2023/01/31 20:55:10;;;;;;;15.53;6.37;;;;;6.50;101786.00;;;;10058625;29;20207;-78
2023/01/31 21:00:12;;;;;;;13.70;6.83;;;;;6.50;101784.00;;;;10105633;29;20214;-78
2023/01/31 21:05:20;;;;;;;16.20;7.50;;;;;6.40;101773.00;;;;10118392;29;20718;-77
2023/01/31 21:10:22;;;;;;;12.00;7.10;;;;;6.30;101778.00;;;;10118982;29;20239;-78
2023/01/31 21:15:24;;;;;;;16.93;7.47;;;;;6.10;101770.00;;;;10111897;29;20207;-78
2023/01/31 21:20:29;;;;;;;18.97;7.63;;;;;6.00;101765.00;;;;10082243;29;20212;-78
2023/01/31 21:25:31;;;;;;;18.40;7.37;;;;;5.90;101767.00;;;;10103755;29;20208;-78
2023/01/31 21:30:33;;;;;;;15.10;7.70;;;;;5.80;101774.00;;;;10088486;29;20276;-78
2023/01/31 21:35:36;;;;;;;16.60;7.53;;;;;5.60;101777.00;;;;10102889;29;20212;-78
2023/01/31 21:40:39;;;;;;;14.43;7.30;;;;;5.70;101774.00;;;;10123061;29;20203;-78
2023/01/31 21:45:41;;;;;;;15.80;6.80;;;;;5.70;101769.00;;;;10109698;29;20200;-78
2023/01/31 21:50:43;;;;;;;21.03;6.80;;;;;5.70;101766.00;;;;10070958;29;20227;-79
2023/01/31 21:55:45;;;;;;;12.87;6.87;;;;;5.70;101762.00;;;;10125840;29;20263;-78
2023/01/31 22:00:47;;;;;;;15.30;8.37;;;;;5.50;101747.00;;;;10080170;29;20202;-78
2023/01/31 22:05:49;;;;;;;13.47;8.23;;;;;5.40;101732.00;;;;10074783;29;20210;-78
2023/01/31 22:11:01;;;;;;;19.80;7.07;;;;;5.30;101722.00;;;;10111872;29;20205;-77
2023/01/31 22:16:08;;;;;;;14.20;7.27;;;;;5.20;101708.00;;;;10110078;29;20204;-78
2023/01/31 22:21:13;;;;;;;16.73;7.03;;;;;5.20;101715.00;;;;10104512;29;20219;-78
2023/01/31 22:26:23;;;;;;;20.40;7.60;;;;;5.10;101716.00;;;;10113853;29;20220;-78
2023/01/31 22:31:27;;;;;;;17.13;7.40;;;;;5.20;101710.00;;;;10077798;29;20203;-78
2023/01/31 22:36:29;;;;;;;17.40;7.60;;;;;5.30;101715.00;;;;10118487;29;20204;-78
2023/01/31 22:41:31;;;;;;;19.80;7.93;;;;;5.50;101723.00;;;;10069589;29;20861;-78
2023/01/31 22:46:33;;;;;;;23.53;8.53;;;;;5.60;101724.00;;;;10116878;29;20219;-78
2023/01/31 22:51:34;;;;;;;17.43;8.50;;;;;5.70;101714.00;;;;10095944;29;20227;-77
2023/01/31 22:56:37;;;;;;;15.10;8.13;;;;;5.70;101713.00;;;;10107946;29;20290;-78
2023/01/31 23:01:39;;;;;;;21.23;8.70;;;;;5.80;101722.00;;;;10070229;29;20205;-78
2023/01/31 23:06:41;;;;;;;22.27;8.70;;;;;5.90;101708.00;;;;10115532;29;20227;-78
2023/01/31 23:11:42;;;;;;;21.60;9.90;;;;;6.00;101719.00;;;;10099599;29;20203;-77
2023/01/31 23:22:05;;;;;;;18.70;8.27;;;;;6.20;101711.00;;;;10090748;29;20215;-78
2023/01/31 23:27:07;;;;;;;24.33;8.17;;;;;6.30;101704.00;;;;10073137;29;20664;-78
2023/01/31 23:32:09;;;;;;;17.03;8.07;;;;;6.30;101696.00;;;;10090251;29;20231;-78
2023/01/31 23:37:11;;;;;;;14.87;8.27;;;;;6.30;101702.00;;;;10087234;29;20223;-77
2023/01/31 23:42:12;;;;;;;19.40;8.40;;;;;6.30;101696.00;;;;10107908;29;20263;-78
2023/01/31 23:47:14;;;;;;;13.70;7.93;;;;;6.30;101687.00;;;;10124218;29;20231;-77
2023/01/31 23:52:16;;;;;;;21.33;7.93;;;;;6.30;101698.00;;;;10098491;29;20208;-78
2023/01/31 23:57:18;;;;;;;12.07;6.30;;;;;6.30;101699.00;;;;10087720;29;20216;-78
